createdAt,value
2018-05-18T00:01:12.435Z,117.05
2018-05-18T00:03:39.999Z,124.83
2018-05-18T00:06:07.573Z,127.72
2018-05-18T00:08:35.920Z,111.50
2018-05-18T00:11:04.457Z,122.85
2018-05-18T00:13:31.974Z,122.30
2018-05-18T00:15:59.506Z,128.23
2018-05-18T00:18:27.075Z,109.80
2018-05-18T00:20:55.388Z,120.00
2018-05-18T00:23:22.910Z,118.63
2018-05-18T00:25:51.233Z,119.30
2018-05-18T00:28:18.757Z,113.57
2018-05-18T00:30:47.040Z,122.90
2018-05-18T00:33:17.075Z,119.22
2018-05-18T00:35:44.600Z,121.93
2018-05-18T00:38:14.037Z,118.40
2018-05-18T00:40:41.629Z,125.18
2018-05-18T00:43:09.133Z,111.50
2018-05-18T00:45:36.673Z,122.80
2018-05-18T00:48:05.005Z,119.73
2018-05-18T00:50:32.523Z,124.28
2018-05-18T00:53:00.039Z,123.70
2018-05-18T00:55:40.045Z,121.27
2018-05-18T00:58:07.567Z,130.40
2018-05-18T01:00:35.107Z,136.60
2018-05-18T01:03:02.655Z,123.80
2018-05-18T01:05:30.221Z,119.80
2018-05-18T01:07:57.767Z,124.73
2018-05-18T01:10:25.322Z,119.37
2018-05-18T01:12:53.151Z,109.87
2018-05-18T01:15:20.683Z,127.97
2018-05-18T01:17:49.440Z,115.60
2018-05-18T01:20:16.976Z,118.87
2018-05-18T01:22:44.515Z,118.63
2018-05-18T01:25:12.067Z,105.47
2018-05-18T01:27:39.597Z,121.20
2018-05-18T01:30:07.132Z,99.13
2018-05-18T01:32:34.689Z,104.83
2018-05-18T01:35:02.984Z,107.83
2018-05-18T01:37:30.508Z,109.12
2018-05-18T01:39:58.634Z,95.27
2018-05-18T01:42:26.941Z,99.57
2018-05-18T01:44:54.462Z,100.82
2018-05-18T01:47:22.006Z,93.23
2018-05-18T01:49:49.533Z,80.12
2018-05-18T01:52:17.088Z,110.63
2018-05-18T01:54:44.649Z,88.63
2018-05-18T01:57:12.170Z,91.23
2018-05-18T01:59:39.699Z,80.67
2018-05-18T02:02:07.955Z,96.03
2018-05-18T02:04:35.522Z,86.55
2018-05-18T02:07:03.111Z,75.30
2018-05-18T02:09:31.455Z,78.65
2018-05-18T02:11:58.969Z,82.50
2018-05-18T02:14:26.771Z,89.95
2018-05-18T02:16:54.328Z,77.83
2018-05-18T02:19:21.848Z,85.10
2018-05-18T02:21:50.128Z,84.63
2018-05-18T02:24:18.131Z,68.80
2018-05-18T02:26:45.655Z,83.10
2018-05-18T02:29:26.343Z,73.68
2018-05-18T02:33:51.042Z,71.13
2018-05-18T02:36:18.615Z,85.57
2018-05-18T02:38:46.146Z,82.43
2018-05-18T02:41:15.538Z,74.65
2018-05-18T02:43:44.581Z,93.80
2018-05-18T02:46:12.100Z,78.00
2018-05-18T02:48:39.626Z,90.03
2018-05-18T02:51:07.183Z,80.07
2018-05-18T02:53:34.703Z,79.63
2018-05-18T02:56:02.232Z,77.00
2018-05-18T02:58:29.778Z,90.53
2018-05-18T03:00:58.071Z,87.87
2018-05-18T03:03:25.594Z,81.60
2018-05-18T03:05:53.728Z,89.33
2018-05-18T03:08:21.255Z,90.70
2018-05-18T03:10:48.788Z,89.15
2018-05-18T03:13:16.481Z,86.47
2018-05-18T03:15:44.143Z,87.47
2018-05-18T03:18:11.675Z,112.73
2018-05-18T03:20:40.011Z,110.93
2018-05-18T03:23:07.553Z,110.20
2018-05-18T03:25:35.100Z,106.87
2018-05-18T03:28:03.392Z,109.80
2018-05-18T03:30:30.963Z,108.83
2018-05-18T03:32:58.484Z,129.10
2018-05-18T03:35:26.046Z,118.37
2018-05-18T03:37:53.575Z,125.50
2018-05-18T03:40:21.899Z,113.63
2018-05-18T03:42:49.439Z,122.25
2018-05-18T03:45:16.962Z,131.27
2018-05-18T03:47:44.498Z,108.03
2018-05-18T03:50:12.650Z,123.63
2018-05-18T03:52:40.178Z,119.60
2018-05-18T03:55:08.467Z,132.60
2018-05-18T03:57:36.029Z,101.80
2018-05-18T04:00:04.492Z,134.40
2018-05-18T04:02:44.646Z,121.27
2018-05-18T04:05:23.878Z,129.57
2018-05-18T04:08:04.579Z,121.07
2018-05-18T04:10:32.147Z,100.90
2018-05-18T04:12:59.675Z,102.93
2018-05-18T04:15:27.250Z,97.90
2018-05-18T04:17:55.206Z,111.57
2018-05-18T04:20:22.755Z,103.90
2018-05-18T04:22:51.115Z,109.60
2018-05-18T04:25:18.648Z,99.93
2018-05-18T04:27:46.172Z,112.13
2018-05-18T04:30:25.157Z,114.23
2018-05-18T04:32:52.687Z,104.20
2018-05-18T04:35:20.215Z,109.63
2018-05-18T04:37:47.794Z,105.07
2018-05-18T04:40:16.525Z,103.33
2018-05-18T04:42:44.063Z,96.20
2018-05-18T04:45:11.701Z,92.77
2018-05-18T04:47:39.230Z,111.90
2018-05-18T04:50:06.752Z,109.77
2018-05-18T04:52:34.331Z,109.53
2018-05-18T04:55:02.644Z,86.93
2018-05-18T04:57:30.268Z,92.82
2018-05-18T04:59:57.837Z,95.97
2018-05-18T05:02:25.356Z,88.00
2018-05-18T05:04:52.895Z,82.00
2018-05-18T05:07:20.463Z,104.93
2018-05-18T05:09:48.024Z,88.93
2018-05-18T05:12:16.427Z,78.40
2018-05-18T05:14:44.668Z,82.50
2018-05-18T05:17:12.205Z,71.97
2018-05-18T05:19:39.761Z,74.67
2018-05-18T05:22:07.313Z,76.30
2018-05-18T05:24:34.849Z,69.53
2018-05-18T05:27:03.162Z,71.40
2018-05-18T05:29:30.744Z,82.62
2018-05-18T05:31:59.095Z,72.50
2018-05-18T05:34:26.631Z,62.17
2018-05-18T05:36:55.286Z,63.30
2018-05-18T05:39:22.902Z,70.63
2018-05-18T05:41:50.674Z,74.53
2018-05-18T05:44:18.290Z,59.47
2018-05-18T05:46:45.846Z,64.10
2018-05-18T05:49:14.886Z,59.45
2018-05-18T05:51:42.480Z,63.10
2018-05-18T05:54:10.878Z,59.27
2018-05-18T05:56:39.180Z,55.57
2018-05-18T05:59:07.404Z,66.10
2018-05-18T06:01:34.943Z,54.63
2018-05-18T06:04:02.459Z,60.23
2018-05-18T06:06:31.983Z,51.40
2018-05-18T06:08:59.511Z,58.57
2018-05-18T06:11:27.871Z,54.27
2018-05-18T06:13:55.459Z,60.90
2018-05-18T06:16:23.757Z,56.15
2018-05-18T06:33:17.479Z,51.37
2018-05-18T06:35:45.007Z,53.13
2018-05-18T06:38:12.519Z,46.78
2018-05-18T06:40:40.079Z,50.00
2018-05-18T06:43:08.372Z,63.87
2018-05-18T06:45:35.900Z,43.13
2018-05-18T06:48:03.497Z,49.77
2018-05-18T06:50:31.103Z,53.20
2018-05-18T06:52:59.406Z,51.97
2018-05-18T06:55:28.056Z,54.60
2018-05-18T06:57:55.598Z,48.03
2018-05-18T07:00:23.130Z,52.20
2018-05-18T07:02:50.709Z,54.23
2018-05-18T07:05:18.257Z,47.37
2018-05-18T07:07:45.783Z,48.20
2018-05-18T07:10:15.011Z,45.50
2018-05-18T07:12:42.652Z,41.27
2018-05-18T07:15:10.200Z,47.03
2018-05-18T07:17:38.245Z,44.00
2018-05-18T07:20:05.784Z,46.03
2018-05-18T07:22:33.311Z,50.55
2018-05-18T07:25:00.905Z,39.07
2018-05-18T07:27:28.460Z,41.83
2018-05-18T07:29:55.994Z,43.63
2018-05-18T07:32:23.547Z,34.80
2018-05-18T07:34:51.114Z,34.93
2018-05-18T07:37:18.631Z,37.95
2018-05-18T07:39:47.280Z,34.23
2018-05-18T07:42:16.388Z,33.40
2018-05-18T07:44:43.932Z,33.87
2018-05-18T07:47:11.496Z,37.27
2018-05-18T07:49:39.088Z,32.30
2018-05-18T07:52:06.618Z,37.10
2018-05-18T07:54:34.338Z,36.70
2018-05-18T07:57:01.884Z,31.37
2018-05-18T07:59:29.488Z,32.03
2018-05-18T08:01:57.435Z,34.47
2018-05-18T08:04:24.971Z,27.47
2018-05-18T08:06:52.968Z,29.53
2018-05-18T08:09:20.695Z,29.86
2018-05-18T08:11:48.239Z,31.53
2018-05-18T08:14:16.588Z,29.07
2018-05-18T08:16:44.139Z,27.13
2018-05-18T08:19:12.112Z,23.20
2018-05-18T08:21:39.729Z,25.23
2018-05-18T08:24:07.500Z,26.80
2018-05-18T08:26:35.036Z,25.60
2018-05-18T08:29:14.317Z,30.83
2018-05-18T08:31:41.850Z,27.00
2018-05-18T08:34:09.372Z,22.23
2018-05-18T08:36:37.689Z,31.30
2018-05-18T08:39:05.223Z,27.10
2018-05-18T08:41:32.754Z,25.15
2018-05-18T08:44:00.798Z,23.40
2018-05-18T08:46:28.315Z,26.00
2018-05-18T08:48:55.848Z,35.00
2018-05-18T08:53:58.083Z,31.57
2018-05-18T08:56:25.647Z,26.33
2018-05-18T08:58:53.178Z,21.80
2018-05-18T09:01:20.727Z,31.87
2018-05-18T09:03:49.362Z,27.47
2018-05-18T09:06:16.883Z,26.43
2018-05-18T09:08:44.821Z,28.23
2018-05-18T09:11:12.320Z,27.50
2018-05-18T09:13:39.850Z,25.87
2018-05-18T09:16:08.985Z,24.93
2018-05-18T09:18:36.542Z,23.50
2018-05-18T09:21:04.827Z,24.53
2018-05-18T09:23:32.589Z,25.00
2018-05-18T09:26:01.253Z,24.50
2018-05-18T09:28:28.775Z,24.73
2018-05-18T09:30:57.067Z,22.90
2018-05-18T09:33:25.390Z,24.15
2018-05-18T09:35:52.914Z,31.53
2018-05-18T09:38:22.304Z,23.75
2018-05-18T09:40:50.630Z,25.50
2018-05-18T09:43:18.581Z,27.53
2018-05-18T09:45:46.166Z,28.47
2018-05-18T09:48:15.282Z,30.13
2018-05-18T09:50:42.828Z,28.17
2018-05-18T09:53:10.368Z,21.50
2018-05-18T09:55:38.016Z,26.10
2018-05-18T09:58:05.597Z,32.92
2018-05-18T10:00:33.122Z,29.02
2018-05-18T10:03:00.744Z,22.37
2018-05-18T10:05:29.056Z,24.20
2018-05-18T10:07:56.580Z,30.07
2018-05-18T10:10:25.109Z,26.63
2018-05-18T10:12:52.641Z,31.87
2018-05-18T10:15:20.184Z,29.33
2018-05-18T10:17:48.510Z,32.03
2018-05-18T10:20:17.888Z,39.14
2018-05-18T10:22:45.487Z,31.15
2018-05-18T10:25:14.679Z,29.55
2018-05-18T10:27:42.207Z,29.83
2018-05-18T10:30:09.727Z,27.43
2018-05-18T10:32:37.427Z,29.73
2018-05-18T10:35:05.017Z,27.53
2018-05-18T10:37:32.559Z,39.83
2018-05-18T10:40:00.387Z,34.67
2018-05-18T10:42:28.702Z,31.20
2018-05-18T10:44:56.248Z,24.83
2018-05-18T10:47:24.039Z,35.40
2018-05-18T10:49:51.585Z,33.20
2018-05-18T10:52:19.181Z,29.52
2018-05-18T10:54:47.366Z,30.53
2018-05-18T10:57:16.309Z,26.50
2018-05-18T10:59:43.842Z,28.53
2018-05-18T11:02:11.555Z,25.00
2018-05-18T11:04:39.070Z,25.53
2018-05-18T11:07:06.638Z,24.80
2018-05-18T11:09:34.258Z,25.53
2018-05-18T11:12:02.563Z,29.13
2018-05-18T11:14:30.106Z,22.30
2018-05-18T11:16:58.513Z,36.40
2018-05-18T11:19:26.115Z,28.50
2018-05-18T11:21:53.666Z,25.57
2018-05-18T11:24:21.224Z,35.43
2018-05-18T11:26:48.771Z,27.57
2018-05-18T11:29:16.488Z,35.77
2018-05-18T11:31:44.736Z,26.57
2018-05-18T11:34:12.322Z,24.10
2018-05-18T11:36:39.854Z,31.80
2018-05-18T11:39:07.924Z,34.13
2018-05-18T11:41:35.899Z,23.60
2018-05-18T11:44:03.472Z,29.40
2018-05-18T11:46:31.799Z,22.33
2018-05-18T11:48:59.329Z,18.90
2018-05-18T11:51:26.872Z,27.00
2018-05-18T11:53:54.427Z,25.63
2018-05-18T11:56:21.961Z,23.10
2018-05-18T11:58:49.511Z,24.63
2018-05-18T12:01:17.717Z,24.40
2018-05-18T12:03:45.994Z,25.93
2018-05-18T12:06:15.422Z,29.75
2018-05-18T12:08:43.071Z,30.80
2018-05-18T12:11:10.576Z,27.77
2018-05-18T12:13:38.139Z,32.07
2018-05-18T12:16:05.705Z,25.00
2018-05-18T12:18:33.283Z,24.77
2018-05-18T12:21:01.604Z,25.20
2018-05-18T12:23:29.776Z,30.67
2018-05-18T12:25:57.305Z,25.03
2018-05-18T12:28:25.613Z,23.98
2018-05-18T12:30:53.171Z,23.77
2018-05-18T12:33:20.733Z,22.33
2018-05-18T12:35:48.267Z,29.00
2018-05-18T12:38:16.674Z,20.73
2018-05-18T12:40:44.130Z,27.27
2018-05-18T12:43:12.040Z,22.40
2018-05-18T12:45:39.983Z,22.40
2018-05-18T12:48:07.513Z,25.42
2018-05-18T12:50:35.047Z,29.43
2018-05-18T12:53:02.767Z,29.48
2018-05-18T12:55:30.354Z,28.07
2018-05-18T12:57:57.920Z,29.27
2018-05-18T13:00:26.263Z,28.38
2018-05-18T13:02:53.834Z,24.40
2018-05-18T13:05:21.372Z,31.30
2018-05-18T13:07:49.560Z,23.83
2018-05-18T13:10:17.091Z,23.63
2018-05-18T13:12:44.669Z,27.73
2018-05-18T13:15:12.284Z,27.83
2018-05-18T13:17:39.839Z,27.30
2018-05-18T13:20:07.371Z,28.43
2018-05-18T13:22:34.927Z,27.37
2018-05-18T13:25:02.477Z,34.20
2018-05-18T13:27:30.011Z,34.93
2018-05-18T13:29:58.286Z,26.52
2018-05-18T13:32:25.808Z,28.55
2018-05-18T13:34:53.347Z,24.67
2018-05-18T13:37:20.899Z,23.90
2018-05-18T13:39:48.427Z,29.30
2018-05-18T13:42:19.426Z,27.50
2018-05-18T13:44:47.785Z,25.73
2018-05-18T13:47:16.286Z,31.50
2018-05-18T13:49:43.812Z,31.90
2018-05-18T13:52:11.947Z,23.63
2018-05-18T13:54:39.502Z,30.77
2018-05-18T13:57:07.081Z,26.90
2018-05-18T13:59:34.639Z,25.62
2018-05-18T14:02:02.351Z,34.50
2018-05-18T14:04:29.911Z,33.80
2018-05-18T14:06:57.737Z,29.30
2018-05-18T14:09:26.111Z,35.43
2018-05-18T14:11:53.645Z,27.77
2018-05-18T14:14:21.722Z,30.80
2018-05-18T14:16:49.411Z,33.47
2018-05-18T14:19:17.126Z,29.23
2018-05-18T14:21:44.676Z,33.93
2018-05-18T14:24:12.232Z,27.03
2018-05-18T14:26:39.829Z,23.97
2018-05-18T14:29:07.375Z,34.07
2018-05-18T14:31:34.896Z,25.70
2018-05-18T14:34:02.541Z,28.83
2018-05-18T14:36:30.466Z,26.63
2018-05-18T14:38:57.995Z,30.43
2018-05-18T14:41:25.539Z,24.67
2018-05-18T14:43:53.111Z,23.43
2018-05-18T14:46:20.855Z,21.07
2018-05-18T14:48:49.135Z,20.00
2018-05-18T14:51:16.736Z,25.77
2018-05-18T14:53:44.986Z,26.27
2018-05-18T14:56:12.519Z,21.15
2018-05-18T14:58:41.266Z,22.37
2018-05-18T15:01:08.798Z,27.92
2018-05-18T15:03:36.326Z,27.67
2018-05-18T15:06:03.894Z,21.80
2018-05-18T15:08:32.179Z,27.40
2018-05-18T15:10:59.810Z,20.00
2018-05-18T15:13:27.355Z,23.70
2018-05-18T15:15:55.734Z,20.90
2018-05-18T15:18:24.156Z,18.40
2018-05-18T15:20:52.498Z,22.40
2018-05-18T15:23:20.182Z,22.25
2018-05-18T15:25:48.478Z,24.17
2018-05-18T15:28:18.378Z,27.13
2018-05-18T15:30:45.979Z,23.60
2018-05-18T15:33:24.526Z,20.98
2018-05-18T15:38:32.922Z,23.10
2018-05-18T15:41:01.177Z,22.77
2018-05-18T15:43:28.743Z,19.30
2018-05-18T15:45:56.320Z,22.23
2018-05-18T15:48:24.108Z,16.53
2018-05-18T15:50:51.648Z,19.73
2018-05-18T15:53:19.224Z,25.60
2018-05-18T15:55:46.747Z,23.77
2018-05-18T15:58:16.335Z,22.67
2018-05-18T16:00:45.302Z,20.67
2018-05-18T16:03:25.024Z,18.15
2018-05-18T16:14:33.565Z,21.25
2018-05-18T16:17:01.175Z,20.37
2018-05-18T16:19:28.800Z,22.20
2018-05-18T16:21:56.800Z,22.33
2018-05-18T16:24:24.331Z,19.50
2018-05-18T16:26:51.860Z,20.90
2018-05-18T16:29:20.195Z,22.80
2018-05-18T16:31:47.719Z,21.77
2018-05-18T16:34:17.327Z,18.55
2018-05-18T16:36:44.907Z,20.30
2018-05-18T16:39:12.460Z,19.58
2018-05-18T16:41:39.986Z,21.53
2018-05-18T16:44:07.628Z,19.00
2018-05-18T16:46:35.280Z,29.90
2018-05-18T16:49:03.600Z,25.20
2018-05-18T16:51:31.150Z,21.83
2018-05-18T16:53:58.678Z,22.60
2018-05-18T16:56:26.960Z,23.67
2018-05-18T16:58:55.478Z,25.52
2018-05-18T17:01:23.816Z,26.30
2018-05-18T17:03:51.363Z,30.70
2018-05-18T17:06:19.220Z,26.95
2018-05-18T17:08:46.747Z,24.53
2018-05-18T17:11:15.593Z,25.25
2018-05-18T17:13:43.181Z,20.33
2018-05-18T17:16:10.851Z,20.80
2018-05-18T17:18:38.391Z,22.10
2018-05-18T17:21:05.951Z,22.00
2018-05-18T17:23:33.470Z,25.88
2018-05-18T17:26:01.774Z,18.57
2018-05-18T17:28:29.638Z,23.00
2018-05-18T17:30:57.157Z,19.10
2018-05-18T17:33:24.722Z,23.58
2018-05-18T17:35:53.047Z,23.20
2018-05-18T17:38:20.567Z,22.33
2018-05-18T17:40:48.090Z,18.00
2018-05-18T17:43:16.504Z,23.80
2018-05-18T17:45:44.814Z,18.73
2018-05-18T17:48:12.345Z,18.17
2018-05-18T17:50:40.087Z,20.50
2018-05-18T17:53:07.607Z,21.70
2018-05-18T17:55:35.134Z,21.40
2018-05-18T17:58:02.694Z,21.33
2018-05-18T18:00:30.219Z,25.67
2018-05-18T18:02:57.734Z,22.47
2018-05-18T18:05:25.382Z,20.50
2018-05-18T18:07:52.936Z,26.37
2018-05-18T18:10:20.394Z,16.95
2018-05-18T18:12:48.500Z,23.77
2018-05-18T18:15:16.540Z,18.35
2018-05-18T18:17:44.059Z,21.50
2018-05-18T18:20:11.636Z,29.30
2018-05-18T18:22:39.709Z,20.17
2018-05-18T18:25:07.263Z,23.37
2018-05-18T18:27:35.726Z,20.17
2018-05-18T18:30:03.366Z,21.73
2018-05-18T18:32:30.888Z,25.70
2018-05-18T18:34:58.572Z,22.30
2018-05-18T18:37:26.109Z,21.17
2018-05-18T18:39:53.694Z,37.07
2018-05-18T18:42:21.249Z,20.73
2018-05-18T18:44:48.770Z,23.57
2018-05-18T18:47:16.555Z,14.97
2018-05-18T18:49:44.186Z,24.10
2018-05-18T18:52:12.028Z,30.80
2018-05-18T18:54:39.493Z,40.65
2018-05-18T18:57:08.298Z,31.13
2018-05-18T18:59:36.590Z,29.67
2018-05-18T19:02:04.124Z,35.53
2018-05-18T19:04:31.671Z,42.70
2018-05-18T19:07:00.016Z,30.27
2018-05-18T19:09:27.557Z,29.30
2018-05-18T19:11:55.111Z,29.40
2018-05-18T19:14:22.635Z,32.40
2018-05-18T19:16:50.973Z,30.67
2018-05-18T19:19:18.860Z,24.77
2018-05-18T19:21:46.452Z,43.55
2018-05-18T19:24:15.527Z,25.90
2018-05-18T19:26:43.070Z,32.37
2018-05-18T19:29:10.672Z,32.03
2018-05-18T19:31:38.195Z,29.23
2018-05-18T19:34:05.745Z,34.73
2018-05-18T19:36:33.299Z,38.50
2018-05-18T19:41:34.863Z,34.80
2018-05-18T19:44:02.416Z,34.13
2018-05-18T19:46:29.995Z,32.83
2018-05-18T19:48:57.596Z,35.67
2018-05-18T19:51:25.126Z,30.73
2018-05-18T19:53:53.003Z,30.23
2018-05-18T19:56:20.571Z,25.93
2018-05-18T19:58:48.892Z,31.50
2018-05-18T20:01:16.479Z,30.47
2018-05-18T20:03:45.568Z,27.60
2018-05-18T20:06:24.455Z,32.97
2018-05-18T20:11:25.899Z,36.50
2018-05-18T20:13:53.431Z,32.58
2018-05-18T20:16:21.741Z,34.73
2018-05-18T20:21:23.213Z,32.93
2018-05-18T20:23:51.246Z,33.57
2018-05-18T20:26:19.545Z,28.37
2018-05-18T20:28:47.067Z,35.10
2018-05-18T20:31:16.448Z,28.07
2018-05-18T20:33:43.967Z,33.27
2018-05-18T20:36:11.535Z,33.53
2018-05-18T20:38:39.403Z,33.83
2018-05-18T20:41:06.944Z,35.17
2018-05-18T20:43:34.500Z,32.17
2018-05-18T20:46:02.051Z,36.00
2018-05-18T20:48:30.361Z,29.33
2018-05-18T20:50:57.911Z,35.70
2018-05-18T20:53:25.500Z,31.60
2018-05-18T20:55:53.245Z,28.87
2018-05-18T20:58:20.772Z,31.90
2018-05-18T21:00:49.597Z,30.23
2018-05-18T21:03:17.116Z,33.80
2018-05-18T21:05:45.402Z,38.57
2018-05-18T21:08:25.500Z,27.87
2018-05-18T21:23:50.782Z,35.70
2018-05-18T21:26:18.336Z,43.10
2018-05-18T21:28:46.031Z,36.97
2018-05-18T21:31:33.927Z,39.40
2018-05-18T21:34:01.447Z,33.10
2018-05-18T21:36:30.451Z,37.67
2018-05-18T21:38:58.989Z,36.77
2018-05-18T21:41:26.531Z,43.05
2018-05-18T21:43:54.046Z,38.77
2018-05-18T21:46:22.359Z,31.45
2018-05-18T21:48:49.889Z,33.90
2018-05-18T21:51:17.421Z,30.53
2018-05-18T21:53:44.971Z,32.03
2018-05-18T21:56:12.847Z,30.85
2018-05-18T21:58:40.455Z,31.90
2018-05-18T22:01:08.631Z,32.73
2018-05-18T22:03:36.159Z,33.97
2018-05-18T22:06:03.687Z,27.40
2018-05-18T22:08:31.228Z,40.83
2018-05-18T22:10:58.771Z,31.67
2018-05-18T22:13:26.305Z,38.30
2018-05-18T22:15:53.862Z,35.77
2018-05-18T22:18:21.391Z,41.45
2018-05-18T22:20:48.917Z,33.87
2018-05-18T22:23:17.783Z,29.60
2018-05-18T22:25:46.039Z,36.07
2018-05-18T22:28:25.801Z,39.60
2018-05-18T22:33:51.548Z,30.10
2018-05-18T22:36:19.160Z,35.73
2018-05-18T22:38:47.459Z,35.87
2018-05-18T22:41:15.663Z,39.73
2018-05-18T22:43:43.179Z,34.53
2018-05-18T22:46:11.467Z,26.27
2018-05-18T22:48:39.015Z,33.00
2018-05-18T22:51:06.584Z,30.67
2018-05-18T22:53:34.136Z,31.00
2018-05-18T22:56:01.696Z,32.23
2018-05-18T22:58:29.233Z,29.37
2018-05-18T23:00:56.751Z,35.57
2018-05-18T23:03:24.336Z,33.00
2018-05-18T23:05:51.854Z,33.03
2018-05-18T23:08:19.376Z,26.83
2018-05-18T23:10:47.696Z,31.97
2018-05-18T23:13:15.479Z,37.60
2018-05-18T23:15:43.025Z,30.20
2018-05-18T23:18:10.566Z,25.30
2018-05-18T23:20:38.091Z,23.83
2018-05-18T23:23:06.428Z,29.40
2018-05-18T23:25:34.618Z,31.73
2018-05-18T23:28:02.165Z,32.97
2018-05-18T23:30:29.693Z,31.13
2018-05-18T23:32:57.243Z,32.10
2018-05-18T23:35:24.763Z,29.63
2018-05-18T23:37:52.283Z,29.70
2018-05-18T23:40:19.834Z,30.35
2018-05-18T23:42:47.483Z,31.30
2018-05-18T23:45:17.171Z,35.00
2018-05-18T23:47:45.306Z,29.47
2018-05-18T23:50:13.771Z,30.23
2018-05-18T23:52:41.296Z,32.60
2018-05-18T23:55:08.843Z,36.93
2018-05-18T23:57:36.491Z,43.27
